sensor_id;sensor_type;location;lat;lon;timestamp;P1;durP1;ratioP1;P2;durP2;ratioP2
22268;SDS011;11303;50.772;19.670;2024-02-28T00:01:52;187.15;;;100.63;;
22268;SDS011;11303;50.772;19.670;2024-02-28T00:03:54;204.07;;;107.32;;
22268;SDS011;11303;50.772;19.670;2024-02-28T00:05:56;215.85;;;117.18;;
22268;SDS011;11303;50.772;19.670;2024-02-28T00:07:57;292.80;;;153.25;;
22268;SDS011;11303;50.772;19.670;2024-02-28T00:09:59;247.85;;;127.50;;
22268;SDS011;11303;50.772;19.670;2024-02-28T00:12:01;179.30;;;93.50;;
22268;SDS011;11303;50.772;19.670;2024-02-28T00:14:02;176.35;;;90.25;;
22268;SDS011;11303;50.772;19.670;2024-02-28T00:16:04;188.02;;;97.20;;
22268;SDS011;11303;50.772;19.670;2024-02-28T00:18:06;189.38;;;91.53;;
22268;SDS011;11303;50.772;19.670;2024-02-28T00:20:08;170.45;;;83.47;;
22268;SDS011;11303;50.772;19.670;2024-02-28T00:22:11;195.00;;;93.05;;
22268;SDS011;11303;50.772;19.670;2024-02-28T00:24:12;181.20;;;92.82;;
22268;SDS011;11303;50.772;19.670;2024-02-28T00:26:14;195.35;;;94.28;;
22268;SDS011;11303;50.772;19.670;2024-02-28T00:28:15;211.90;;;107.75;;
22268;SDS011;11303;50.772;19.670;2024-02-28T00:30:17;203.15;;;109.03;;
22268;SDS011;11303;50.772;19.670;2024-02-28T00:32:19;240.23;;;120.68;;
22268;SDS011;11303;50.772;19.670;2024-02-28T00:34:20;218.25;;;113.15;;
22268;SDS011;11303;50.772;19.670;2024-02-28T00:36:22;208.85;;;112.25;;
22268;SDS011;11303;50.772;19.670;2024-02-28T00:38:23;266.98;;;134.65;;
22268;SDS011;11303;50.772;19.670;2024-02-28T00:40:25;237.95;;;121.05;;
22268;SDS011;11303;50.772;19.670;2024-02-28T00:42:26;228.65;;;117.65;;
22268;SDS011;11303;50.772;19.670;2024-02-28T00:44:28;217.57;;;113.32;;
22268;SDS011;11303;50.772;19.670;2024-02-28T00:46:30;220.23;;;115.43;;
22268;SDS011;11303;50.772;19.670;2024-02-28T00:48:31;272.90;;;142.23;;
22268;SDS011;11303;50.772;19.670;2024-02-28T00:50:33;213.38;;;113.95;;
22268;SDS011;11303;50.772;19.670;2024-02-28T00:52:34;225.63;;;117.35;;
22268;SDS011;11303;50.772;19.670;2024-02-28T00:54:36;217.63;;;109.45;;
22268;SDS011;11303;50.772;19.670;2024-02-28T00:56:38;192.60;;;100.88;;
22268;SDS011;11303;50.772;19.670;2024-02-28T00:58:40;177.45;;;94.25;;
22268;SDS011;11303;50.772;19.670;2024-02-28T01:00:41;170.10;;;91.72;;
22268;SDS011;11303;50.772;19.670;2024-02-28T01:02:43;183.48;;;91.05;;
22268;SDS011;11303;50.772;19.670;2024-02-28T01:04:44;169.30;;;87.32;;
22268;SDS011;11303;50.772;19.670;2024-02-28T01:06:46;186.95;;;95.68;;
22268;SDS011;11303;50.772;19.670;2024-02-28T01:08:48;185.93;;;94.60;;
22268;SDS011;11303;50.772;19.670;2024-02-28T01:10:49;172.30;;;86.97;;
22268;SDS011;11303;50.772;19.670;2024-02-28T01:12:51;162.15;;;89.70;;
22268;SDS011;11303;50.772;19.670;2024-02-28T01:14:54;178.98;;;89.05;;
22268;SDS011;11303;50.772;19.670;2024-02-28T01:16:55;166.43;;;86.22;;
22268;SDS011;11303;50.772;19.670;2024-02-28T01:18:57;182.60;;;90.80;;
22268;SDS011;11303;50.772;19.670;2024-02-28T01:20:59;190.13;;;93.38;;
22268;SDS011;11303;50.772;19.670;2024-02-28T01:23:00;216.32;;;105.95;;
22268;SDS011;11303;50.772;19.670;2024-02-28T01:25:02;233.30;;;120.00;;
22268;SDS011;11303;50.772;19.670;2024-02-28T01:27:05;207.18;;;109.22;;
22268;SDS011;11303;50.772;19.670;2024-02-28T01:29:07;191.77;;;98.35;;
22268;SDS011;11303;50.772;19.670;2024-02-28T01:31:08;191.57;;;95.47;;
22268;SDS011;11303;50.772;19.670;2024-02-28T01:33:10;203.85;;;103.45;;
22268;SDS011;11303;50.772;19.670;2024-02-28T01:35:14;188.60;;;98.22;;
22268;SDS011;11303;50.772;19.670;2024-02-28T01:37:15;187.68;;;93.28;;
22268;SDS011;11303;50.772;19.670;2024-02-28T01:39:17;194.55;;;99.40;;
22268;SDS011;11303;50.772;19.670;2024-02-28T01:41:18;195.45;;;96.68;;
22268;SDS011;11303;50.772;19.670;2024-02-28T01:43:20;191.68;;;99.30;;
22268;SDS011;11303;50.772;19.670;2024-02-28T01:45:22;192.75;;;98.93;;
22268;SDS011;11303;50.772;19.670;2024-02-28T01:47:23;211.13;;;108.68;;
22268;SDS011;11303;50.772;19.670;2024-02-28T01:49:25;331.48;;;174.32;;
22268;SDS011;11303;50.772;19.670;2024-02-28T01:51:27;227.27;;;121.30;;
22268;SDS011;11303;50.772;19.670;2024-02-28T01:53:29;234.77;;;120.05;;
22268;SDS011;11303;50.772;19.670;2024-02-28T01:55:30;237.27;;;120.10;;
22268;SDS011;11303;50.772;19.670;2024-02-28T01:57:32;231.98;;;122.85;;
22268;SDS011;11303;50.772;19.670;2024-02-28T01:59:35;236.77;;;121.88;;
22268;SDS011;11303;50.772;19.670;2024-02-28T02:01:38;232.90;;;123.13;;
22268;SDS011;11303;50.772;19.670;2024-02-28T02:03:39;239.30;;;127.05;;
22268;SDS011;11303;50.772;19.670;2024-02-28T02:05:41;233.02;;;122.05;;
22268;SDS011;11303;50.772;19.670;2024-02-28T02:07:44;223.68;;;121.25;;
22268;SDS011;11303;50.772;19.670;2024-02-28T02:09:45;239.75;;;129.90;;
22268;SDS011;11303;50.772;19.670;2024-02-28T02:11:47;247.95;;;130.60;;
22268;SDS011;11303;50.772;19.670;2024-02-28T02:13:49;265.50;;;143.60;;
22268;SDS011;11303;50.772;19.670;2024-02-28T02:15:51;260.77;;;147.05;;
22268;SDS011;11303;50.772;19.670;2024-02-28T02:17:53;268.95;;;142.02;;
22268;SDS011;11303;50.772;19.670;2024-02-28T02:19:55;263.38;;;146.38;;
22268;SDS011;11303;50.772;19.670;2024-02-28T02:21:57;264.88;;;138.32;;
22268;SDS011;11303;50.772;19.670;2024-02-28T02:24:00;262.48;;;135.10;;
22268;SDS011;11303;50.772;19.670;2024-02-28T02:26:01;246.90;;;126.30;;
22268;SDS011;11303;50.772;19.670;2024-02-28T02:28:03;243.50;;;130.00;;
22268;SDS011;11303;50.772;19.670;2024-02-28T02:30:05;234.95;;;127.32;;
22268;SDS011;11303;50.772;19.670;2024-02-28T02:32:07;252.82;;;134.48;;
22268;SDS011;11303;50.772;19.670;2024-02-28T02:34:08;252.73;;;134.77;;
22268;SDS011;11303;50.772;19.670;2024-02-28T02:36:10;251.50;;;134.40;;
22268;SDS011;11303;50.772;19.670;2024-02-28T02:38:12;243.45;;;127.90;;
22268;SDS011;11303;50.772;19.670;2024-02-28T02:40:15;221.57;;;117.78;;
22268;SDS011;11303;50.772;19.670;2024-02-28T02:42:17;211.32;;;113.38;;
22268;SDS011;11303;50.772;19.670;2024-02-28T02:44:19;183.25;;;91.80;;
22268;SDS011;11303;50.772;19.670;2024-02-28T02:46:20;161.40;;;82.97;;
22268;SDS011;11303;50.772;19.670;2024-02-28T02:48:22;154.35;;;80.78;;
22268;SDS011;11303;50.772;19.670;2024-02-28T02:50:24;134.35;;;70.82;;
22268;SDS011;11303;50.772;19.670;2024-02-28T02:52:25;137.55;;;69.93;;
22268;SDS011;11303;50.772;19.670;2024-02-28T02:54:27;136.50;;;70.97;;
22268;SDS011;11303;50.772;19.670;2024-02-28T02:56:28;118.25;;;63.60;;
22268;SDS011;11303;50.772;19.670;2024-02-28T02:58:30;133.77;;;66.93;;
22268;SDS011;11303;50.772;19.670;2024-02-28T03:00:31;128.32;;;68.85;;
22268;SDS011;11303;50.772;19.670;2024-02-28T03:02:33;138.15;;;70.95;;
22268;SDS011;11303;50.772;19.670;2024-02-28T03:04:35;122.90;;;66.63;;
22268;SDS011;11303;50.772;19.670;2024-02-28T03:06:36;157.27;;;88.68;;
22268;SDS011;11303;50.772;19.670;2024-02-28T03:08:38;115.35;;;65.05;;
22268;SDS011;11303;50.772;19.670;2024-02-28T03:10:39;110.90;;;58.35;;
22268;SDS011;11303;50.772;19.670;2024-02-28T03:12:41;96.15;;;54.25;;
22268;SDS011;11303;50.772;19.670;2024-02-28T03:14:43;89.57;;;51.08;;
22268;SDS011;11303;50.772;19.670;2024-02-28T03:16:44;91.82;;;52.85;;
22268;SDS011;11303;50.772;19.670;2024-02-28T03:18:46;97.65;;;53.78;;
22268;SDS011;11303;50.772;19.670;2024-02-28T03:20:47;95.85;;;48.17;;
22268;SDS011;11303;50.772;19.670;2024-02-28T03:22:49;87.93;;;47.40;;
22268;SDS011;11303;50.772;19.670;2024-02-28T03:24:50;83.80;;;47.42;;
22268;SDS011;11303;50.772;19.670;2024-02-28T03:26:52;89.22;;;48.25;;
22268;SDS011;11303;50.772;19.670;2024-02-28T03:28:54;96.45;;;49.33;;
22268;SDS011;11303;50.772;19.670;2024-02-28T03:30:55;105.22;;;56.22;;
22268;SDS011;11303;50.772;19.670;2024-02-28T03:32:57;117.32;;;71.78;;
22268;SDS011;11303;50.772;19.670;2024-02-28T03:34:58;121.68;;;76.80;;
22268;SDS011;11303;50.772;19.670;2024-02-28T03:37:00;126.03;;;76.57;;
22268;SDS011;11303;50.772;19.670;2024-02-28T03:39:02;107.53;;;63.70;;
22268;SDS011;11303;50.772;19.670;2024-02-28T03:41:05;89.35;;;44.05;;
22268;SDS011;11303;50.772;19.670;2024-02-28T03:43:06;79.47;;;41.72;;
22268;SDS011;11303;50.772;19.670;2024-02-28T03:45:08;83.03;;;45.15;;
22268;SDS011;11303;50.772;19.670;2024-02-28T03:47:10;86.63;;;45.83;;
22268;SDS011;11303;50.772;19.670;2024-02-28T03:49:11;88.43;;;48.15;;
22268;SDS011;11303;50.772;19.670;2024-02-28T03:51:13;90.25;;;49.45;;
22268;SDS011;11303;50.772;19.670;2024-02-28T03:53:14;94.22;;;54.15;;
22268;SDS011;11303;50.772;19.670;2024-02-28T03:55:16;91.18;;;53.40;;
22268;SDS011;11303;50.772;19.670;2024-02-28T03:57:18;96.78;;;52.75;;
22268;SDS011;11303;50.772;19.670;2024-02-28T03:59:19;96.97;;;57.72;;
22268;SDS011;11303;50.772;19.670;2024-02-28T04:01:21;95.50;;;48.67;;
22268;SDS011;11303;50.772;19.670;2024-02-28T04:03:23;88.10;;;50.55;;
22268;SDS011;11303;50.772;19.670;2024-02-28T04:05:24;94.95;;;51.10;;
22268;SDS011;11303;50.772;19.670;2024-02-28T04:07:26;93.32;;;50.42;;
22268;SDS011;11303;50.772;19.670;2024-02-28T04:09:27;103.05;;;52.63;;
22268;SDS011;11303;50.772;19.670;2024-02-28T04:11:29;96.18;;;52.17;;
22268;SDS011;11303;50.772;19.670;2024-02-28T04:13:31;95.18;;;49.42;;
22268;SDS011;11303;50.772;19.670;2024-02-28T04:15:32;84.70;;;48.45;;
22268;SDS011;11303;50.772;19.670;2024-02-28T04:17:34;84.43;;;45.15;;
22268;SDS011;11303;50.772;19.670;2024-02-28T04:19:35;90.70;;;48.65;;
22268;SDS011;11303;50.772;19.670;2024-02-28T04:21:38;89.78;;;48.55;;
22268;SDS011;11303;50.772;19.670;2024-02-28T04:23:40;88.55;;;47.70;;
22268;SDS011;11303;50.772;19.670;2024-02-28T04:25:43;93.85;;;47.65;;
22268;SDS011;11303;50.772;19.670;2024-02-28T04:27:44;105.00;;;54.08;;
22268;SDS011;11303;50.772;19.670;2024-02-28T04:29:47;99.20;;;52.42;;
22268;SDS011;11303;50.772;19.670;2024-02-28T04:31:49;108.80;;;55.60;;
22268;SDS011;11303;50.772;19.670;2024-02-28T04:33:51;92.40;;;50.20;;
22268;SDS011;11303;50.772;19.670;2024-02-28T04:35:52;100.65;;;55.15;;
22268;SDS011;11303;50.772;19.670;2024-02-28T04:37:54;100.13;;;52.83;;
22268;SDS011;11303;50.772;19.670;2024-02-28T04:39:56;91.00;;;51.35;;
22268;SDS011;11303;50.772;19.670;2024-02-28T04:41:57;89.68;;;52.45;;
22268;SDS011;11303;50.772;19.670;2024-02-28T04:43:59;101.97;;;54.63;;
22268;SDS011;11303;50.772;19.670;2024-02-28T04:46:01;102.40;;;57.97;;
22268;SDS011;11303;50.772;19.670;2024-02-28T04:48:04;120.18;;;61.53;;
22268;SDS011;11303;50.772;19.670;2024-02-28T04:50:06;109.72;;;58.72;;
22268;SDS011;11303;50.772;19.670;2024-02-28T04:52:08;114.75;;;63.22;;
22268;SDS011;11303;50.772;19.670;2024-02-28T04:54:10;114.78;;;62.70;;
22268;SDS011;11303;50.772;19.670;2024-02-28T04:56:11;121.63;;;62.47;;
22268;SDS011;11303;50.772;19.670;2024-02-28T04:58:13;112.00;;;62.50;;
22268;SDS011;11303;50.772;19.670;2024-02-28T05:00:15;122.50;;;62.47;;
22268;SDS011;11303;50.772;19.670;2024-02-28T05:02:17;111.97;;;62.13;;
22268;SDS011;11303;50.772;19.670;2024-02-28T05:04:18;128.23;;;63.50;;
22268;SDS011;11303;50.772;19.670;2024-02-28T05:06:20;124.43;;;66.28;;
22268;SDS011;11303;50.772;19.670;2024-02-28T05:08:22;119.65;;;63.40;;
22268;SDS011;11303;50.772;19.670;2024-02-28T05:10:23;109.80;;;58.42;;
22268;SDS011;11303;50.772;19.670;2024-02-28T05:12:25;107.50;;;59.22;;
22268;SDS011;11303;50.772;19.670;2024-02-28T05:14:27;103.50;;;57.95;;
22268;SDS011;11303;50.772;19.670;2024-02-28T05:16:28;120.53;;;64.22;;
22268;SDS011;11303;50.772;19.670;2024-02-28T05:18:30;107.28;;;60.70;;
22268;SDS011;11303;50.772;19.670;2024-02-28T05:20:31;129.57;;;71.97;;
22268;SDS011;11303;50.772;19.670;2024-02-28T05:22:33;128.98;;;75.05;;
22268;SDS011;11303;50.772;19.670;2024-02-28T05:24:35;142.45;;;78.72;;
22268;SDS011;11303;50.772;19.670;2024-02-28T05:26:36;134.98;;;77.07;;
22268;SDS011;11303;50.772;19.670;2024-02-28T05:28:39;117.95;;;63.30;;
22268;SDS011;11303;50.772;19.670;2024-02-28T05:30:40;119.45;;;63.03;;
22268;SDS011;11303;50.772;19.670;2024-02-28T05:32:48;102.60;;;56.72;;
22268;SDS011;11303;50.772;19.670;2024-02-28T05:34:49;101.57;;;55.35;;
22268;SDS011;11303;50.772;19.670;2024-02-28T05:36:51;98.28;;;51.00;;
22268;SDS011;11303;50.772;19.670;2024-02-28T05:38:53;99.00;;;51.10;;
22268;SDS011;11303;50.772;19.670;2024-02-28T05:40:56;87.63;;;48.22;;
22268;SDS011;11303;50.772;19.670;2024-02-28T05:42:57;94.15;;;44.97;;
22268;SDS011;11303;50.772;19.670;2024-02-28T05:44:59;92.93;;;46.88;;
22268;SDS011;11303;50.772;19.670;2024-02-28T05:47:01;89.25;;;44.33;;
22268;SDS011;11303;50.772;19.670;2024-02-28T05:49:03;84.90;;;45.67;;
22268;SDS011;11303;50.772;19.670;2024-02-28T05:51:05;81.00;;;44.95;;
22268;SDS011;11303;50.772;19.670;2024-02-28T05:53:06;95.97;;;45.40;;
22268;SDS011;11303;50.772;19.670;2024-02-28T05:55:08;94.50;;;50.78;;
22268;SDS011;11303;50.772;19.670;2024-02-28T05:57:10;90.68;;;49.58;;
22268;SDS011;11303;50.772;19.670;2024-02-28T05:59:11;96.57;;;53.50;;
22268;SDS011;11303;50.772;19.670;2024-02-28T06:01:16;86.80;;;47.33;;
22268;SDS011;11303;50.772;19.670;2024-02-28T06:03:20;94.45;;;49.45;;
22268;SDS011;11303;50.772;19.670;2024-02-28T06:05:21;95.00;;;52.25;;
22268;SDS011;11303;50.772;19.670;2024-02-28T06:07:23;93.30;;;54.95;;
22268;SDS011;11303;50.772;19.670;2024-02-28T06:09:25;89.30;;;49.15;;
22268;SDS011;11303;50.772;19.670;2024-02-28T06:11:28;89.10;;;45.38;;
22268;SDS011;11303;50.772;19.670;2024-02-28T06:13:30;88.07;;;46.50;;
22268;SDS011;11303;50.772;19.670;2024-02-28T06:15:32;84.30;;;46.53;;
22268;SDS011;11303;50.772;19.670;2024-02-28T06:17:34;86.75;;;47.95;;
22268;SDS011;11303;50.772;19.670;2024-02-28T06:19:35;100.80;;;53.83;;
22268;SDS011;11303;50.772;19.670;2024-02-28T06:21:37;96.13;;;54.08;;
22268;SDS011;11303;50.772;19.670;2024-02-28T06:23:39;104.47;;;58.10;;
22268;SDS011;11303;50.772;19.670;2024-02-28T06:25:40;121.65;;;62.60;;
22268;SDS011;11303;50.772;19.670;2024-02-28T06:27:42;115.25;;;61.75;;
22268;SDS011;11303;50.772;19.670;2024-02-28T06:29:44;111.18;;;62.25;;
22268;SDS011;11303;50.772;19.670;2024-02-28T06:31:49;137.15;;;80.28;;
22268;SDS011;11303;50.772;19.670;2024-02-28T06:33:52;143.05;;;79.75;;
22268;SDS011;11303;50.772;19.670;2024-02-28T06:35:53;131.25;;;79.28;;
22268;SDS011;11303;50.772;19.670;2024-02-28T06:37:55;124.25;;;76.57;;
22268;SDS011;11303;50.772;19.670;2024-02-28T06:39:56;141.38;;;80.75;;
22268;SDS011;11303;50.772;19.670;2024-02-28T06:41:58;146.95;;;71.53;;
22268;SDS011;11303;50.772;19.670;2024-02-28T06:44:00;137.38;;;68.88;;
22268;SDS011;11303;50.772;19.670;2024-02-28T06:46:02;120.07;;;66.50;;
22268;SDS011;11303;50.772;19.670;2024-02-28T06:48:04;125.07;;;66.70;;
22268;SDS011;11303;50.772;19.670;2024-02-28T06:50:07;127.95;;;67.53;;
22268;SDS011;11303;50.772;19.670;2024-02-28T06:52:09;121.07;;;65.18;;
22268;SDS011;11303;50.772;19.670;2024-02-28T06:54:10;160.95;;;85.55;;
22268;SDS011;11303;50.772;19.670;2024-02-28T06:56:12;131.88;;;68.10;;
22268;SDS011;11303;50.772;19.670;2024-02-28T06:58:14;126.25;;;67.78;;
22268;SDS011;11303;50.772;19.670;2024-02-28T07:00:16;117.95;;;62.10;;
22268;SDS011;11303;50.772;19.670;2024-02-28T07:02:20;113.53;;;61.72;;
22268;SDS011;11303;50.772;19.670;2024-02-28T07:04:21;109.97;;;61.92;;
22268;SDS011;11303;50.772;19.670;2024-02-28T07:06:23;109.90;;;57.80;;
22268;SDS011;11303;50.772;19.670;2024-02-28T07:08:25;101.38;;;55.72;;
22268;SDS011;11303;50.772;19.670;2024-02-28T07:10:26;107.35;;;59.45;;
22268;SDS011;11303;50.772;19.670;2024-02-28T07:12:28;92.32;;;53.28;;
22268;SDS011;11303;50.772;19.670;2024-02-28T07:14:29;91.40;;;50.90;;
22268;SDS011;11303;50.772;19.670;2024-02-28T07:16:31;77.03;;;47.97;;
22268;SDS011;11303;50.772;19.670;2024-02-28T07:18:35;97.65;;;55.50;;
22268;SDS011;11303;50.772;19.670;2024-02-28T07:20:36;101.68;;;59.03;;
22268;SDS011;11303;50.772;19.670;2024-02-28T07:22:38;88.43;;;55.00;;
22268;SDS011;11303;50.772;19.670;2024-02-28T07:24:40;89.25;;;51.63;;
22268;SDS011;11303;50.772;19.670;2024-02-28T07:26:42;92.68;;;53.88;;
22268;SDS011;11303;50.772;19.670;2024-02-28T07:28:44;160.68;;;95.43;;
22268;SDS011;11303;50.772;19.670;2024-02-28T07:30:54;228.20;;;126.07;;
22268;SDS011;11303;50.772;19.670;2024-02-28T07:32:56;99.75;;;56.45;;
22268;SDS011;11303;50.772;19.670;2024-02-28T07:34:58;110.30;;;55.30;;
22268;SDS011;11303;50.772;19.670;2024-02-28T07:36:59;103.57;;;55.38;;
22268;SDS011;11303;50.772;19.670;2024-02-28T07:39:01;116.07;;;58.67;;
22268;SDS011;11303;50.772;19.670;2024-02-28T07:41:03;87.90;;;47.88;;
22268;SDS011;11303;50.772;19.670;2024-02-28T07:43:05;70.88;;;40.17;;
22268;SDS011;11303;50.772;19.670;2024-02-28T07:45:07;68.60;;;39.60;;
22268;SDS011;11303;50.772;19.670;2024-02-28T07:47:10;69.45;;;40.40;;
22268;SDS011;11303;50.772;19.670;2024-02-28T07:49:12;65.35;;;39.92;;
22268;SDS011;11303;50.772;19.670;2024-02-28T07:51:14;79.22;;;50.90;;
22268;SDS011;11303;50.772;19.670;2024-02-28T07:53:16;71.03;;;45.13;;
22268;SDS011;11303;50.772;19.670;2024-02-28T07:55:18;65.95;;;37.53;;
22268;SDS011;11303;50.772;19.670;2024-02-28T07:57:21;63.30;;;36.38;;
22268;SDS011;11303;50.772;19.670;2024-02-28T07:59:23;60.67;;;34.25;;
22268;SDS011;11303;50.772;19.670;2024-02-28T08:01:24;53.97;;;31.63;;
22268;SDS011;11303;50.772;19.670;2024-02-28T08:03:26;60.67;;;33.33;;
22268;SDS011;11303;50.772;19.670;2024-02-28T08:05:28;52.28;;;30.80;;
22268;SDS011;11303;50.772;19.670;2024-02-28T08:07:30;49.17;;;27.60;;
22268;SDS011;11303;50.772;19.670;2024-02-28T08:09:31;46.97;;;28.58;;
22268;SDS011;11303;50.772;19.670;2024-02-28T08:11:33;48.75;;;28.98;;
22268;SDS011;11303;50.772;19.670;2024-02-28T08:13:34;43.70;;;25.20;;
22268;SDS011;11303;50.772;19.670;2024-02-28T08:15:36;47.47;;;26.88;;
22268;SDS011;11303;50.772;19.670;2024-02-28T08:17:37;43.10;;;26.42;;
22268;SDS011;11303;50.772;19.670;2024-02-28T08:19:40;41.65;;;27.05;;
22268;SDS011;11303;50.772;19.670;2024-02-28T08:21:43;44.05;;;26.17;;
22268;SDS011;11303;50.772;19.670;2024-02-28T08:23:44;50.33;;;29.65;;
22268;SDS011;11303;50.772;19.670;2024-02-28T08:25:46;57.67;;;34.60;;
22268;SDS011;11303;50.772;19.670;2024-02-28T08:27:47;70.90;;;38.00;;
22268;SDS011;11303;50.772;19.670;2024-02-28T08:29:49;64.40;;;36.25;;
22268;SDS011;11303;50.772;19.670;2024-02-28T08:31:51;60.47;;;35.80;;
22268;SDS011;11303;50.772;19.670;2024-02-28T08:33:53;48.28;;;30.35;;
22268;SDS011;11303;50.772;19.670;2024-02-28T08:35:55;53.35;;;33.17;;
22268;SDS011;11303;50.772;19.670;2024-02-28T08:37:56;106.15;;;52.95;;
22268;SDS011;11303;50.772;19.670;2024-02-28T08:39:58;123.13;;;60.50;;
22268;SDS011;11303;50.772;19.670;2024-02-28T08:42:00;75.72;;;41.50;;
22268;SDS011;11303;50.772;19.670;2024-02-28T08:44:01;60.35;;;34.63;;
22268;SDS011;11303;50.772;19.670;2024-02-28T08:46:03;76.93;;;40.03;;
22268;SDS011;11303;50.772;19.670;2024-02-28T08:48:05;78.88;;;44.38;;
22268;SDS011;11303;50.772;19.670;2024-02-28T08:50:08;64.55;;;37.08;;
22268;SDS011;11303;50.772;19.670;2024-02-28T08:52:10;61.30;;;35.17;;
22268;SDS011;11303;50.772;19.670;2024-02-28T08:54:12;61.90;;;35.63;;
22268;SDS011;11303;50.772;19.670;2024-02-28T08:56:13;47.92;;;28.85;;
22268;SDS011;11303;50.772;19.670;2024-02-28T08:58:15;43.55;;;25.02;;
22268;SDS011;11303;50.772;19.670;2024-02-28T09:00:17;40.97;;;23.92;;
22268;SDS011;11303;50.772;19.670;2024-02-28T09:02:19;37.13;;;23.08;;
22268;SDS011;11303;50.772;19.670;2024-02-28T09:04:21;44.55;;;26.08;;
22268;SDS011;11303;50.772;19.670;2024-02-28T09:06:23;42.63;;;26.80;;
22268;SDS011;11303;50.772;19.670;2024-02-28T09:08:24;46.08;;;24.48;;
22268;SDS011;11303;50.772;19.670;2024-02-28T09:10:26;41.67;;;23.35;;
22268;SDS011;11303;50.772;19.670;2024-02-28T09:12:27;37.85;;;22.98;;
22268;SDS011;11303;50.772;19.670;2024-02-28T09:14:29;38.75;;;24.08;;
22268;SDS011;11303;50.772;19.670;2024-02-28T09:16:31;36.78;;;21.25;;
22268;SDS011;11303;50.772;19.670;2024-02-28T09:18:32;34.45;;;19.70;;
22268;SDS011;11303;50.772;19.670;2024-02-28T09:20:35;37.95;;;20.77;;
22268;SDS011;11303;50.772;19.670;2024-02-28T09:22:37;34.13;;;20.92;;
22268;SDS011;11303;50.772;19.670;2024-02-28T09:24:39;34.63;;;19.58;;
22268;SDS011;11303;50.772;19.670;2024-02-28T09:26:41;33.17;;;19.20;;
22268;SDS011;11303;50.772;19.670;2024-02-28T09:28:42;32.15;;;20.90;;
22268;SDS011;11303;50.772;19.670;2024-02-28T09:30:44;33.25;;;18.73;;
22268;SDS011;11303;50.772;19.670;2024-02-28T09:32:53;30.73;;;18.85;;
22268;SDS011;11303;50.772;19.670;2024-02-28T09:34:55;32.88;;;19.38;;
22268;SDS011;11303;50.772;19.670;2024-02-28T09:36:57;35.33;;;18.02;;
22268;SDS011;11303;50.772;19.670;2024-02-28T09:38:58;32.05;;;19.73;;
22268;SDS011;11303;50.772;19.670;2024-02-28T09:41:01;34.28;;;20.75;;
22268;SDS011;11303;50.772;19.670;2024-02-28T09:43:03;35.33;;;19.77;;
22268;SDS011;11303;50.772;19.670;2024-02-28T09:45:05;38.60;;;21.20;;
22268;SDS011;11303;50.772;19.670;2024-02-28T09:47:11;31.98;;;19.38;;
22268;SDS011;11303;50.772;19.670;2024-02-28T09:49:12;28.58;;;19.02;;
22268;SDS011;11303;50.772;19.670;2024-02-28T09:51:15;32.65;;;20.20;;
22268;SDS011;11303;50.772;19.670;2024-02-28T09:53:19;30.67;;;19.45;;
22268;SDS011;11303;50.772;19.670;2024-02-28T09:55:21;30.23;;;17.88;;
22268;SDS011;11303;50.772;19.670;2024-02-28T09:57:23;33.67;;;17.25;;
22268;SDS011;11303;50.772;19.670;2024-02-28T09:59:30;32.53;;;19.95;;
22268;SDS011;11303;50.772;19.670;2024-02-28T10:01:50;33.13;;;19.73;;
22268;SDS011;11303;50.772;19.670;2024-02-28T10:03:59;33.55;;;17.42;;
22268;SDS011;11303;50.772;19.670;2024-02-28T10:06:02;30.58;;;16.80;;
22268;SDS011;11303;50.772;19.670;2024-02-28T10:08:06;31.83;;;16.77;;
22268;SDS011;11303;50.772;19.670;2024-02-28T10:10:10;31.10;;;16.95;;
22268;SDS011;11303;50.772;19.670;2024-02-28T10:12:11;29.92;;;17.30;;
22268;SDS011;11303;50.772;19.670;2024-02-28T10:14:16;34.33;;;17.90;;
22268;SDS011;11303;50.772;19.670;2024-02-28T10:16:21;32.95;;;20.35;;
22268;SDS011;11303;50.772;19.670;2024-02-28T10:18:22;37.75;;;18.13;;
22268;SDS011;11303;50.772;19.670;2024-02-28T10:20:24;30.85;;;19.40;;
22268;SDS011;11303;50.772;19.670;2024-02-28T10:22:25;30.02;;;19.38;;
22268;SDS011;11303;50.772;19.670;2024-02-28T10:24:27;35.15;;;20.27;;
22268;SDS011;11303;50.772;19.670;2024-02-28T10:26:29;37.50;;;21.40;;
22268;SDS011;11303;50.772;19.670;2024-02-28T10:28:35;53.53;;;27.73;;
22268;SDS011;11303;50.772;19.670;2024-02-28T10:30:41;48.80;;;27.05;;
22268;SDS011;11303;50.772;19.670;2024-02-28T10:32:50;36.42;;;19.92;;
22268;SDS011;11303;50.772;19.670;2024-02-28T10:34:52;33.20;;;19.23;;
22268;SDS011;11303;50.772;19.670;2024-02-28T10:36:54;37.72;;;21.13;;
22268;SDS011;11303;50.772;19.670;2024-02-28T10:38:56;37.90;;;22.15;;
22268;SDS011;11303;50.772;19.670;2024-02-28T10:40:58;31.33;;;18.55;;
22268;SDS011;11303;50.772;19.670;2024-02-28T10:43:01;27.35;;;16.65;;
22268;SDS011;11303;50.772;19.670;2024-02-28T10:45:04;28.90;;;18.00;;
22268;SDS011;11303;50.772;19.670;2024-02-28T10:47:26;28.75;;;18.63;;
22268;SDS011;11303;50.772;19.670;2024-02-28T10:49:28;35.45;;;20.70;;
22268;SDS011;11303;50.772;19.670;2024-02-28T10:51:33;31.92;;;20.67;;
22268;SDS011;11303;50.772;19.670;2024-02-28T10:53:37;36.45;;;19.38;;
22268;SDS011;11303;50.772;19.670;2024-02-28T10:55:43;35.47;;;18.50;;
22268;SDS011;11303;50.772;19.670;2024-02-28T10:57:51;31.00;;;17.20;;
22268;SDS011;11303;50.772;19.670;2024-02-28T10:59:58;33.67;;;16.73;;
22268;SDS011;11303;50.772;19.670;2024-02-28T11:02:01;28.83;;;16.60;;
22268;SDS011;11303;50.772;19.670;2024-02-28T11:04:04;28.88;;;15.75;;
22268;SDS011;11303;50.772;19.670;2024-02-28T11:06:16;34.28;;;21.25;;
22268;SDS011;11303;50.772;19.670;2024-02-28T11:08:23;44.70;;;25.20;;
22268;SDS011;11303;50.772;19.670;2024-02-28T11:10:30;44.70;;;24.95;;
22268;SDS011;11303;50.772;19.670;2024-02-28T11:12:34;75.38;;;42.08;;
22268;SDS011;11303;50.772;19.670;2024-02-28T11:14:36;76.53;;;43.40;;
22268;SDS011;11303;50.772;19.670;2024-02-28T11:16:38;41.97;;;24.65;;
22268;SDS011;11303;50.772;19.670;2024-02-28T11:18:49;38.25;;;22.15;;
22268;SDS011;11303;50.772;19.670;2024-02-28T11:20:51;36.17;;;22.10;;
22268;SDS011;11303;50.772;19.670;2024-02-28T11:22:56;35.42;;;22.15;;
22268;SDS011;11303;50.772;19.670;2024-02-28T11:24:59;37.30;;;22.23;;
22268;SDS011;11303;50.772;19.670;2024-02-28T11:27:00;37.65;;;23.65;;
22268;SDS011;11303;50.772;19.670;2024-02-28T11:29:04;42.53;;;25.85;;
22268;SDS011;11303;50.772;19.670;2024-02-28T11:31:08;41.03;;;24.70;;
22268;SDS011;11303;50.772;19.670;2024-02-28T11:33:10;35.67;;;22.70;;
22268;SDS011;11303;50.772;19.670;2024-02-28T11:35:12;37.42;;;22.00;;
22268;SDS011;11303;50.772;19.670;2024-02-28T11:37:14;34.58;;;21.65;;
22268;SDS011;11303;50.772;19.670;2024-02-28T11:39:17;38.55;;;21.58;;